sensor_id;sensor_type;location;lat;lon;timestamp;P1;durP1;ratioP1;P2;durP2;ratioP2
5465;SDS011;2755;50.728;7.108;2024-03-08T00:00:14;118.80;;;33.80;;
5465;SDS011;2755;50.728;7.108;2024-03-08T00:02:42;116.87;;;31.00;;
5465;SDS011;2755;50.728;7.108;2024-03-08T00:05:08;120.07;;;34.63;;
5465;SDS011;2755;50.728;7.108;2024-03-08T00:07:34;118.37;;;32.90;;
5465;SDS011;2755;50.728;7.108;2024-03-08T00:10:01;118.40;;;33.10;;
5465;SDS011;2755;50.728;7.108;2024-03-08T00:12:30;118.73;;;33.17;;
5465;SDS011;2755;50.728;7.108;2024-03-08T00:14:56;119.07;;;33.23;;
5465;SDS011;2755;50.728;7.108;2024-03-08T00:17:21;118.60;;;32.60;;
5465;SDS011;2755;50.728;7.108;2024-03-08T00:19:53;117.10;;;32.23;;
5465;SDS011;2755;50.728;7.108;2024-03-08T00:22:19;116.20;;;29.67;;
5465;SDS011;2755;50.728;7.108;2024-03-08T00:24:44;116.10;;;31.27;;
5465;SDS011;2755;50.728;7.108;2024-03-08T00:27:10;116.90;;;31.90;;
5465;SDS011;2755;50.728;7.108;2024-03-08T00:29:36;115.07;;;29.13;;
5465;SDS011;2755;50.728;7.108;2024-03-08T00:32:03;118.37;;;32.00;;
5465;SDS011;2755;50.728;7.108;2024-03-08T00:34:29;116.27;;;30.67;;
5465;SDS011;2755;50.728;7.108;2024-03-08T00:36:56;116.57;;;30.23;;
5465;SDS011;2755;50.728;7.108;2024-03-08T00:39:23;115.97;;;30.07;;
5465;SDS011;2755;50.728;7.108;2024-03-08T00:41:48;116.97;;;31.10;;
5465;SDS011;2755;50.728;7.108;2024-03-08T00:44:14;117.20;;;31.67;;
5465;SDS011;2755;50.728;7.108;2024-03-08T00:46:39;116.33;;;29.77;;
5465;SDS011;2755;50.728;7.108;2024-03-08T00:49:05;116.97;;;31.20;;
5465;SDS011;2755;50.728;7.108;2024-03-08T00:51:31;118.17;;;31.17;;
5465;SDS011;2755;50.728;7.108;2024-03-08T00:53:57;118.60;;;31.70;;
5465;SDS011;2755;50.728;7.108;2024-03-08T00:56:23;117.27;;;31.53;;
5465;SDS011;2755;50.728;7.108;2024-03-08T00:58:49;118.40;;;31.60;;
5465;SDS011;2755;50.728;7.108;2024-03-08T01:01:16;117.83;;;30.67;;
5465;SDS011;2755;50.728;7.108;2024-03-08T01:03:43;118.30;;;31.37;;
5465;SDS011;2755;50.728;7.108;2024-03-08T01:06:09;118.40;;;33.43;;
5465;SDS011;2755;50.728;7.108;2024-03-08T01:08:35;117.47;;;31.37;;
5465;SDS011;2755;50.728;7.108;2024-03-08T01:11:03;114.57;;;29.17;;
5465;SDS011;2755;50.728;7.108;2024-03-08T01:13:31;115.37;;;27.20;;
5465;SDS011;2755;50.728;7.108;2024-03-08T01:15:57;117.43;;;31.03;;
5465;SDS011;2755;50.728;7.108;2024-03-08T01:18:22;118.30;;;31.80;;
5465;SDS011;2755;50.728;7.108;2024-03-08T01:20:48;116.63;;;30.50;;
5465;SDS011;2755;50.728;7.108;2024-03-08T01:23:13;115.93;;;29.60;;
5465;SDS011;2755;50.728;7.108;2024-03-08T01:25:39;116.67;;;29.63;;
5465;SDS011;2755;50.728;7.108;2024-03-08T01:28:06;116.37;;;28.77;;
5465;SDS011;2755;50.728;7.108;2024-03-08T01:30:32;118.17;;;32.10;;
5465;SDS011;2755;50.728;7.108;2024-03-08T01:33:00;117.37;;;30.23;;
5465;SDS011;2755;50.728;7.108;2024-03-08T01:35:25;115.83;;;28.07;;
5465;SDS011;2755;50.728;7.108;2024-03-08T01:37:52;116.67;;;30.57;;
5465;SDS011;2755;50.728;7.108;2024-03-08T01:40:18;114.90;;;28.07;;
5465;SDS011;2755;50.728;7.108;2024-03-08T01:42:44;114.90;;;27.33;;
5465;SDS011;2755;50.728;7.108;2024-03-08T01:45:09;117.20;;;27.50;;
5465;SDS011;2755;50.728;7.108;2024-03-08T01:47:35;115.83;;;28.37;;
5465;SDS011;2755;50.728;7.108;2024-03-08T01:50:01;115.37;;;27.30;;
5465;SDS011;2755;50.728;7.108;2024-03-08T01:52:34;115.87;;;25.40;;
5465;SDS011;2755;50.728;7.108;2024-03-08T01:55:00;116.90;;;28.90;;
5465;SDS011;2755;50.728;7.108;2024-03-08T01:57:28;116.20;;;27.70;;
5465;SDS011;2755;50.728;7.108;2024-03-08T01:59:58;117.07;;;29.57;;
5465;SDS011;2755;50.728;7.108;2024-03-08T02:02:27;116.87;;;26.67;;
5465;SDS011;2755;50.728;7.108;2024-03-08T02:04:52;116.70;;;27.87;;
5465;SDS011;2755;50.728;7.108;2024-03-08T02:07:18;114.30;;;26.30;;
5465;SDS011;2755;50.728;7.108;2024-03-08T02:09:44;116.30;;;28.70;;
5465;SDS011;2755;50.728;7.108;2024-03-08T02:12:10;116.07;;;28.03;;
5465;SDS011;2755;50.728;7.108;2024-03-08T02:14:35;118.50;;;30.10;;
5465;SDS011;2755;50.728;7.108;2024-03-08T02:17:01;116.43;;;29.50;;
5465;SDS011;2755;50.728;7.108;2024-03-08T02:19:27;116.17;;;27.20;;
5465;SDS011;2755;50.728;7.108;2024-03-08T02:21:53;117.37;;;30.80;;
5465;SDS011;2755;50.728;7.108;2024-03-08T02:24:18;114.80;;;28.70;;
5465;SDS011;2755;50.728;7.108;2024-03-08T02:26:44;116.47;;;28.07;;
5465;SDS011;2755;50.728;7.108;2024-03-08T02:29:09;115.17;;;27.17;;
5465;SDS011;2755;50.728;7.108;2024-03-08T02:31:35;116.90;;;29.30;;
5465;SDS011;2755;50.728;7.108;2024-03-08T02:34:01;117.80;;;30.27;;
5465;SDS011;2755;50.728;7.108;2024-03-08T02:36:27;114.40;;;27.20;;
5465;SDS011;2755;50.728;7.108;2024-03-08T02:38:52;116.17;;;28.77;;
5465;SDS011;2755;50.728;7.108;2024-03-08T02:41:20;117.17;;;30.40;;
5465;SDS011;2755;50.728;7.108;2024-03-08T02:43:46;116.87;;;29.80;;
5465;SDS011;2755;50.728;7.108;2024-03-08T02:46:12;115.27;;;28.70;;
5465;SDS011;2755;50.728;7.108;2024-03-08T02:48:38;116.63;;;29.30;;
5465;SDS011;2755;50.728;7.108;2024-03-08T02:51:04;117.27;;;31.27;;
5465;SDS011;2755;50.728;7.108;2024-03-08T02:53:30;116.67;;;29.03;;
5465;SDS011;2755;50.728;7.108;2024-03-08T02:55:56;114.57;;;29.00;;
5465;SDS011;2755;50.728;7.108;2024-03-08T02:58:22;116.57;;;30.63;;
5465;SDS011;2755;50.728;7.108;2024-03-08T03:00:48;116.63;;;30.50;;
5465;SDS011;2755;50.728;7.108;2024-03-08T03:03:13;115.83;;;29.40;;
5465;SDS011;2755;50.728;7.108;2024-03-08T03:05:39;118.70;;;30.47;;
5465;SDS011;2755;50.728;7.108;2024-03-08T03:08:06;117.93;;;30.50;;
5465;SDS011;2755;50.728;7.108;2024-03-08T03:10:33;117.90;;;31.30;;
5465;SDS011;2755;50.728;7.108;2024-03-08T03:12:59;116.83;;;29.10;;
5465;SDS011;2755;50.728;7.108;2024-03-08T03:15:25;116.50;;;30.87;;
5465;SDS011;2755;50.728;7.108;2024-03-08T03:17:51;116.60;;;29.87;;
5465;SDS011;2755;50.728;7.108;2024-03-08T03:20:17;118.90;;;31.00;;
5465;SDS011;2755;50.728;7.108;2024-03-08T03:22:48;115.93;;;28.03;;
5465;SDS011;2755;50.728;7.108;2024-03-08T03:25:17;115.80;;;28.43;;
5465;SDS011;2755;50.728;7.108;2024-03-08T03:27:51;116.07;;;29.70;;
5465;SDS011;2755;50.728;7.108;2024-03-08T03:30:17;115.60;;;30.50;;
5465;SDS011;2755;50.728;7.108;2024-03-08T03:32:46;115.57;;;27.60;;
5465;SDS011;2755;50.728;7.108;2024-03-08T03:35:13;116.37;;;30.40;;
5465;SDS011;2755;50.728;7.108;2024-03-08T03:37:40;116.37;;;29.03;;
5465;SDS011;2755;50.728;7.108;2024-03-08T03:40:08;116.40;;;30.07;;
5465;SDS011;2755;50.728;7.108;2024-03-08T03:42:34;116.57;;;30.27;;
5465;SDS011;2755;50.728;7.108;2024-03-08T03:44:59;115.50;;;28.97;;
5465;SDS011;2755;50.728;7.108;2024-03-08T03:47:25;117.00;;;30.33;;
5465;SDS011;2755;50.728;7.108;2024-03-08T03:49:52;115.67;;;28.00;;
5465;SDS011;2755;50.728;7.108;2024-03-08T03:52:19;117.97;;;29.90;;
5465;SDS011;2755;50.728;7.108;2024-03-08T03:54:44;116.57;;;29.27;;
5465;SDS011;2755;50.728;7.108;2024-03-08T03:57:10;117.67;;;29.60;;
5465;SDS011;2755;50.728;7.108;2024-03-08T03:59:37;116.90;;;30.40;;
5465;SDS011;2755;50.728;7.108;2024-03-08T04:02:03;115.63;;;30.50;;
5465;SDS011;2755;50.728;7.108;2024-03-08T04:04:28;117.27;;;32.10;;
5465;SDS011;2755;50.728;7.108;2024-03-08T04:06:54;117.03;;;31.60;;
5465;SDS011;2755;50.728;7.108;2024-03-08T04:09:20;118.27;;;32.80;;
5465;SDS011;2755;50.728;7.108;2024-03-08T04:11:47;116.50;;;30.60;;
5465;SDS011;2755;50.728;7.108;2024-03-08T04:14:13;118.30;;;33.23;;
5465;SDS011;2755;50.728;7.108;2024-03-08T04:16:38;119.00;;;32.70;;
5465;SDS011;2755;50.728;7.108;2024-03-08T04:19:04;118.07;;;31.97;;
5465;SDS011;2755;50.728;7.108;2024-03-08T04:21:30;120.17;;;34.20;;
5465;SDS011;2755;50.728;7.108;2024-03-08T04:23:55;115.60;;;30.40;;
5465;SDS011;2755;50.728;7.108;2024-03-08T04:26:21;117.87;;;33.20;;
5465;SDS011;2755;50.728;7.108;2024-03-08T04:28:47;117.37;;;32.17;;
5465;SDS011;2755;50.728;7.108;2024-03-08T04:31:12;119.57;;;34.70;;
5465;SDS011;2755;50.728;7.108;2024-03-08T04:33:38;118.17;;;33.13;;
5465;SDS011;2755;50.728;7.108;2024-03-08T04:36:04;118.83;;;32.93;;
5465;SDS011;2755;50.728;7.108;2024-03-08T04:38:30;117.00;;;32.10;;
5465;SDS011;2755;50.728;7.108;2024-03-08T04:40:56;118.80;;;33.83;;
5465;SDS011;2755;50.728;7.108;2024-03-08T04:43:22;117.10;;;31.60;;
5465;SDS011;2755;50.728;7.108;2024-03-08T04:45:51;116.07;;;30.73;;
5465;SDS011;2755;50.728;7.108;2024-03-08T04:48:17;117.90;;;34.20;;
5465;SDS011;2755;50.728;7.108;2024-03-08T04:50:43;116.33;;;30.23;;
5465;SDS011;2755;50.728;7.108;2024-03-08T04:53:09;118.27;;;33.07;;
5465;SDS011;2755;50.728;7.108;2024-03-08T04:55:35;119.73;;;34.93;;
5465;SDS011;2755;50.728;7.108;2024-03-08T04:58:02;118.20;;;32.07;;
5465;SDS011;2755;50.728;7.108;2024-03-08T05:00:29;118.87;;;33.43;;
5465;SDS011;2755;50.728;7.108;2024-03-08T05:02:55;120.40;;;35.17;;
5465;SDS011;2755;50.728;7.108;2024-03-08T05:05:20;119.07;;;34.40;;
5465;SDS011;2755;50.728;7.108;2024-03-08T05:07:47;118.67;;;34.27;;
5465;SDS011;2755;50.728;7.108;2024-03-08T05:10:14;117.67;;;32.30;;
5465;SDS011;2755;50.728;7.108;2024-03-08T05:12:42;118.77;;;31.80;;
5465;SDS011;2755;50.728;7.108;2024-03-08T05:15:08;117.40;;;33.10;;
5465;SDS011;2755;50.728;7.108;2024-03-08T05:17:34;120.70;;;32.80;;
5465;SDS011;2755;50.728;7.108;2024-03-08T05:20:00;118.53;;;31.70;;
5465;SDS011;2755;50.728;7.108;2024-03-08T05:22:25;116.37;;;32.07;;
5465;SDS011;2755;50.728;7.108;2024-03-08T05:24:51;118.60;;;31.30;;
5465;SDS011;2755;50.728;7.108;2024-03-08T05:27:16;119.60;;;34.80;;
5465;SDS011;2755;50.728;7.108;2024-03-08T05:29:42;119.57;;;33.50;;
5465;SDS011;2755;50.728;7.108;2024-03-08T05:32:08;119.77;;;34.63;;
5465;SDS011;2755;50.728;7.108;2024-03-08T05:34:34;117.90;;;33.57;;
5465;SDS011;2755;50.728;7.108;2024-03-08T05:37:00;119.67;;;36.13;;
5465;SDS011;2755;50.728;7.108;2024-03-08T05:39:26;119.07;;;35.07;;
5465;SDS011;2755;50.728;7.108;2024-03-08T05:41:52;118.37;;;34.07;;
5465;SDS011;2755;50.728;7.108;2024-03-08T05:44:17;118.87;;;34.57;;
5465;SDS011;2755;50.728;7.108;2024-03-08T05:46:44;119.00;;;34.40;;
5465;SDS011;2755;50.728;7.108;2024-03-08T05:49:11;120.43;;;36.07;;
5465;SDS011;2755;50.728;7.108;2024-03-08T05:51:38;119.07;;;34.77;;
5465;SDS011;2755;50.728;7.108;2024-03-08T05:54:06;120.30;;;35.97;;
5465;SDS011;2755;50.728;7.108;2024-03-08T05:56:36;117.80;;;33.60;;
5465;SDS011;2755;50.728;7.108;2024-03-08T05:59:02;121.13;;;36.83;;
5465;SDS011;2755;50.728;7.108;2024-03-08T06:01:28;120.00;;;35.40;;
5465;SDS011;2755;50.728;7.108;2024-03-08T06:03:54;120.70;;;36.77;;
5465;SDS011;2755;50.728;7.108;2024-03-08T06:06:24;118.60;;;33.97;;
5465;SDS011;2755;50.728;7.108;2024-03-08T06:08:50;119.37;;;35.20;;
5465;SDS011;2755;50.728;7.108;2024-03-08T06:11:17;119.27;;;34.17;;
5465;SDS011;2755;50.728;7.108;2024-03-08T06:13:44;118.70;;;34.40;;
5465;SDS011;2755;50.728;7.108;2024-03-08T06:16:10;119.67;;;34.80;;
5465;SDS011;2755;50.728;7.108;2024-03-08T06:18:35;120.17;;;35.77;;
5465;SDS011;2755;50.728;7.108;2024-03-08T06:21:07;119.67;;;35.00;;
5465;SDS011;2755;50.728;7.108;2024-03-08T06:23:41;118.90;;;32.93;;
5465;SDS011;2755;50.728;7.108;2024-03-08T06:26:06;119.60;;;35.27;;
5465;SDS011;2755;50.728;7.108;2024-03-08T06:28:32;119.87;;;36.33;;
5465;SDS011;2755;50.728;7.108;2024-03-08T06:30:59;120.97;;;36.80;;
5465;SDS011;2755;50.728;7.108;2024-03-08T06:33:26;118.93;;;34.37;;
5465;SDS011;2755;50.728;7.108;2024-03-08T06:35:52;120.93;;;36.93;;
5465;SDS011;2755;50.728;7.108;2024-03-08T06:38:23;120.10;;;34.77;;
5465;SDS011;2755;50.728;7.108;2024-03-08T06:40:49;120.50;;;35.23;;
5465;SDS011;2755;50.728;7.108;2024-03-08T06:43:16;122.30;;;37.77;;
5465;SDS011;2755;50.728;7.108;2024-03-08T06:45:43;118.77;;;33.33;;
5465;SDS011;2755;50.728;7.108;2024-03-08T06:48:15;119.07;;;33.77;;
5465;SDS011;2755;50.728;7.108;2024-03-08T06:50:44;120.87;;;36.97;;
5465;SDS011;2755;50.728;7.108;2024-03-08T06:53:11;118.20;;;32.80;;
5465;SDS011;2755;50.728;7.108;2024-03-08T06:55:37;121.43;;;39.90;;
5465;SDS011;2755;50.728;7.108;2024-03-08T06:58:03;121.30;;;38.30;;
5465;SDS011;2755;50.728;7.108;2024-03-08T07:00:29;119.37;;;37.17;;
5465;SDS011;2755;50.728;7.108;2024-03-08T07:02:55;120.70;;;36.87;;
5465;SDS011;2755;50.728;7.108;2024-03-08T07:05:26;119.30;;;34.57;;
5465;SDS011;2755;50.728;7.108;2024-03-08T07:07:52;121.97;;;38.37;;
5465;SDS011;2755;50.728;7.108;2024-03-08T07:10:20;121.57;;;37.93;;
5465;SDS011;2755;50.728;7.108;2024-03-08T07:12:48;124.70;;;42.87;;
5465;SDS011;2755;50.728;7.108;2024-03-08T07:15:14;124.17;;;42.87;;
5465;SDS011;2755;50.728;7.108;2024-03-08T07:17:41;124.30;;;43.93;;
5465;SDS011;2755;50.728;7.108;2024-03-08T07:20:09;127.30;;;48.17;;
5465;SDS011;2755;50.728;7.108;2024-03-08T07:22:37;127.00;;;47.40;;
5465;SDS011;2755;50.728;7.108;2024-03-08T07:25:06;122.20;;;40.70;;
5465;SDS011;2755;50.728;7.108;2024-03-08T07:27:49;122.77;;;40.20;;
5465;SDS011;2755;50.728;7.108;2024-03-08T07:30:16;124.13;;;41.10;;
5465;SDS011;2755;50.728;7.108;2024-03-08T07:33:00;120.73;;;37.50;;
5465;SDS011;2755;50.728;7.108;2024-03-08T07:35:27;121.17;;;37.00;;
5465;SDS011;2755;50.728;7.108;2024-03-08T07:37:53;122.27;;;37.27;;
5465;SDS011;2755;50.728;7.108;2024-03-08T07:40:22;120.80;;;36.33;;
5465;SDS011;2755;50.728;7.108;2024-03-08T07:42:48;123.03;;;41.20;;
5465;SDS011;2755;50.728;7.108;2024-03-08T07:45:15;126.00;;;45.40;;
5465;SDS011;2755;50.728;7.108;2024-03-08T07:47:41;125.97;;;45.40;;
5465;SDS011;2755;50.728;7.108;2024-03-08T07:50:07;126.27;;;47.00;;
5465;SDS011;2755;50.728;7.108;2024-03-08T07:52:34;124.87;;;43.07;;
5465;SDS011;2755;50.728;7.108;2024-03-08T07:55:00;125.70;;;44.63;;
5465;SDS011;2755;50.728;7.108;2024-03-08T07:57:26;123.97;;;41.10;;
5465;SDS011;2755;50.728;7.108;2024-03-08T07:59:52;125.80;;;45.17;;
5465;SDS011;2755;50.728;7.108;2024-03-08T08:02:17;126.77;;;47.60;;
5465;SDS011;2755;50.728;7.108;2024-03-08T08:04:43;126.23;;;46.33;;
5465;SDS011;2755;50.728;7.108;2024-03-08T08:07:10;127.47;;;47.83;;
5465;SDS011;2755;50.728;7.108;2024-03-08T08:09:36;129.50;;;49.73;;
5465;SDS011;2755;50.728;7.108;2024-03-08T08:12:02;127.27;;;45.07;;
5465;SDS011;2755;50.728;7.108;2024-03-08T08:14:29;125.40;;;43.07;;
5465;SDS011;2755;50.728;7.108;2024-03-08T08:16:57;127.37;;;47.27;;
5465;SDS011;2755;50.728;7.108;2024-03-08T08:19:25;125.90;;;44.80;;
5465;SDS011;2755;50.728;7.108;2024-03-08T08:21:52;126.77;;;46.80;;
5465;SDS011;2755;50.728;7.108;2024-03-08T08:24:17;126.97;;;46.20;;
5465;SDS011;2755;50.728;7.108;2024-03-08T08:26:45;126.17;;;45.53;;
5465;SDS011;2755;50.728;7.108;2024-03-08T08:29:11;125.37;;;43.87;;
5465;SDS011;2755;50.728;7.108;2024-03-08T08:31:36;126.63;;;45.53;;
5465;SDS011;2755;50.728;7.108;2024-03-08T08:34:02;126.90;;;47.90;;
5465;SDS011;2755;50.728;7.108;2024-03-08T08:36:28;126.50;;;46.90;;
5465;SDS011;2755;50.728;7.108;2024-03-08T08:38:54;125.93;;;45.43;;
5465;SDS011;2755;50.728;7.108;2024-03-08T08:41:21;125.60;;;46.17;;
5465;SDS011;2755;50.728;7.108;2024-03-08T08:43:47;126.27;;;45.80;;
5465;SDS011;2755;50.728;7.108;2024-03-08T08:46:16;127.77;;;49.50;;
5465;SDS011;2755;50.728;7.108;2024-03-08T08:48:42;128.57;;;49.20;;
5465;SDS011;2755;50.728;7.108;2024-03-08T08:51:10;126.77;;;47.77;;
5465;SDS011;2755;50.728;7.108;2024-03-08T08:53:42;127.20;;;48.40;;
5465;SDS011;2755;50.728;7.108;2024-03-08T08:56:08;130.67;;;52.00;;
5465;SDS011;2755;50.728;7.108;2024-03-08T08:58:34;127.87;;;48.70;;
5465;SDS011;2755;50.728;7.108;2024-03-08T09:00:59;130.23;;;50.30;;
5465;SDS011;2755;50.728;7.108;2024-03-08T09:03:26;127.77;;;45.33;;
5465;SDS011;2755;50.728;7.108;2024-03-08T09:05:53;129.00;;;49.83;;
5465;SDS011;2755;50.728;7.108;2024-03-08T09:08:19;129.67;;;50.40;;
5465;SDS011;2755;50.728;7.108;2024-03-08T09:10:45;127.17;;;46.80;;
5465;SDS011;2755;50.728;7.108;2024-03-08T09:13:13;129.23;;;51.37;;
5465;SDS011;2755;50.728;7.108;2024-03-08T09:15:39;129.43;;;51.33;;
5465;SDS011;2755;50.728;7.108;2024-03-08T09:18:06;128.57;;;50.50;;
5465;SDS011;2755;50.728;7.108;2024-03-08T09:20:33;130.63;;;53.97;;
5465;SDS011;2755;50.728;7.108;2024-03-08T09:22:58;134.20;;;56.73;;
5465;SDS011;2755;50.728;7.108;2024-03-08T09:25:25;139.67;;;66.10;;
5465;SDS011;2755;50.728;7.108;2024-03-08T09:27:51;138.97;;;64.80;;
5465;SDS011;2755;50.728;7.108;2024-03-08T09:30:17;140.17;;;67.53;;
5465;SDS011;2755;50.728;7.108;2024-03-08T09:32:43;138.83;;;66.97;;
5465;SDS011;2755;50.728;7.108;2024-03-08T09:35:08;142.47;;;72.47;;
5465;SDS011;2755;50.728;7.108;2024-03-08T09:37:36;140.37;;;69.13;;
5465;SDS011;2755;50.728;7.108;2024-03-08T09:40:02;142.67;;;73.27;;
5465;SDS011;2755;50.728;7.108;2024-03-08T09:42:34;140.47;;;70.30;;
5465;SDS011;2755;50.728;7.108;2024-03-08T09:45:05;140.40;;;69.97;;
5465;SDS011;2755;50.728;7.108;2024-03-08T09:47:35;141.60;;;71.77;;
5465;SDS011;2755;50.728;7.108;2024-03-08T09:50:04;141.37;;;73.77;;
5465;SDS011;2755;50.728;7.108;2024-03-08T09:52:30;139.07;;;68.77;;
5465;SDS011;2755;50.728;7.108;2024-03-08T09:54:57;141.73;;;71.57;;
5465;SDS011;2755;50.728;7.108;2024-03-08T09:57:23;140.60;;;70.80;;
5465;SDS011;2755;50.728;7.108;2024-03-08T09:59:50;134.87;;;59.80;;
5465;SDS011;2755;50.728;7.108;2024-03-08T10:02:16;139.37;;;64.00;;
5465;SDS011;2755;50.728;7.108;2024-03-08T10:04:41;145.80;;;76.80;;
5465;SDS011;2755;50.728;7.108;2024-03-08T10:07:08;147.13;;;79.37;;
5465;SDS011;2755;50.728;7.108;2024-03-08T10:09:33;147.10;;;79.07;;
5465;SDS011;2755;50.728;7.108;2024-03-08T10:11:59;147.27;;;81.10;;
5465;SDS011;2755;50.728;7.108;2024-03-08T10:14:25;146.77;;;82.80;;
5465;SDS011;2755;50.728;7.108;2024-03-08T10:16:51;143.30;;;74.80;;
5465;SDS011;2755;50.728;7.108;2024-03-08T10:19:18;144.60;;;77.43;;
5465;SDS011;2755;50.728;7.108;2024-03-08T10:21:50;146.07;;;78.23;;
5465;SDS011;2755;50.728;7.108;2024-03-08T10:24:19;141.37;;;69.83;;
5465;SDS011;2755;50.728;7.108;2024-03-08T10:26:45;144.47;;;72.27;;
5465;SDS011;2755;50.728;7.108;2024-03-08T10:29:11;142.77;;;72.47;;
5465;SDS011;2755;50.728;7.108;2024-03-08T10:31:42;141.90;;;70.13;;
5465;SDS011;2755;50.728;7.108;2024-03-08T10:34:09;143.37;;;73.97;;
5465;SDS011;2755;50.728;7.108;2024-03-08T10:36:35;141.87;;;70.03;;
5465;SDS011;2755;50.728;7.108;2024-03-08T10:39:06;143.47;;;65.87;;
5465;SDS011;2755;50.728;7.108;2024-03-08T10:41:41;135.60;;;59.47;;
5465;SDS011;2755;50.728;7.108;2024-03-08T10:47:03;132.43;;;53.47;;
5465;SDS011;2755;50.728;7.108;2024-03-08T10:49:46;130.83;;;54.47;;
5465;SDS011;2755;50.728;7.108;2024-03-08T10:52:29;132.40;;;54.70;;
5465;SDS011;2755;50.728;7.108;2024-03-08T10:54:54;134.80;;;59.60;;
5465;SDS011;2755;50.728;7.108;2024-03-08T10:57:22;133.93;;;57.77;;
5465;SDS011;2755;50.728;7.108;2024-03-08T10:59:49;137.30;;;62.40;;
5465;SDS011;2755;50.728;7.108;2024-03-08T11:02:15;137.37;;;63.43;;
5465;SDS011;2755;50.728;7.108;2024-03-08T11:04:46;132.87;;;56.40;;
5465;SDS011;2755;50.728;7.108;2024-03-08T11:07:14;135.27;;;59.57;;
5465;SDS011;2755;50.728;7.108;2024-03-08T11:09:42;134.23;;;58.13;;
5465;SDS011;2755;50.728;7.108;2024-03-08T11:12:23;136.37;;;62.47;;
5465;SDS011;2755;50.728;7.108;2024-03-08T11:14:53;137.57;;;63.43;;
5465;SDS011;2755;50.728;7.108;2024-03-08T11:17:20;138.80;;;68.13;;
5465;SDS011;2755;50.728;7.108;2024-03-08T11:19:55;138.60;;;65.17;;
5465;SDS011;2755;50.728;7.108;2024-03-08T11:22:23;140.13;;;67.77;;
5465;SDS011;2755;50.728;7.108;2024-03-08T11:24:52;140.77;;;68.10;;
5465;SDS011;2755;50.728;7.108;2024-03-08T11:27:18;140.93;;;67.87;;
5465;SDS011;2755;50.728;7.108;2024-03-08T11:29:45;139.20;;;64.63;;
5465;SDS011;2755;50.728;7.108;2024-03-08T11:32:27;138.03;;;63.50;;
5465;SDS011;2755;50.728;7.108;2024-03-08T11:34:54;138.10;;;63.67;;
5465;SDS011;2755;50.728;7.108;2024-03-08T11:37:20;140.53;;;67.37;;
5465;SDS011;2755;50.728;7.108;2024-03-08T11:39:55;139.07;;;65.37;;
5465;SDS011;2755;50.728;7.108;2024-03-08T11:42:24;141.47;;;69.70;;
5465;SDS011;2755;50.728;7.108;2024-03-08T11:44:53;140.87;;;67.23;;
5465;SDS011;2755;50.728;7.108;2024-03-08T11:47:19;143.00;;;71.33;;
5465;SDS011;2755;50.728;7.108;2024-03-08T11:49:45;142.40;;;70.17;;
5465;SDS011;2755;50.728;7.108;2024-03-08T11:52:13;143.50;;;69.93;;
5465;SDS011;2755;50.728;7.108;2024-03-08T11:54:47;144.13;;;71.67;;
5465;SDS011;2755;50.728;7.108;2024-03-08T11:57:19;145.00;;;72.60;;
5465;SDS011;2755;50.728;7.108;2024-03-08T11:59:51;141.17;;;66.47;;
5465;SDS011;2755;50.728;7.108;2024-03-08T12:02:18;142.27;;;67.17;;
5465;SDS011;2755;50.728;7.108;2024-03-08T12:04:47;149.43;;;78.60;;
5465;SDS011;2755;50.728;7.108;2024-03-08T12:07:12;153.27;;;83.93;;
5465;SDS011;2755;50.728;7.108;2024-03-08T12:09:42;164.17;;;102.30;;
5465;SDS011;2755;50.728;7.108;2024-03-08T12:12:11;148.57;;;76.17;;
5465;SDS011;2755;50.728;7.108;2024-03-08T12:14:37;150.47;;;78.30;;
5465;SDS011;2755;50.728;7.108;2024-03-08T12:17:03;149.07;;;74.07;;
5465;SDS011;2755;50.728;7.108;2024-03-08T12:19:30;147.57;;;72.30;;
5465;SDS011;2755;50.728;7.108;2024-03-08T12:21:56;142.57;;;66.97;;
5465;SDS011;2755;50.728;7.108;2024-03-08T12:24:22;136.77;;;58.00;;
5465;SDS011;2755;50.728;7.108;2024-03-08T12:26:48;136.00;;;58.80;;
5465;SDS011;2755;50.728;7.108;2024-03-08T12:29:37;134.20;;;57.07;;
5465;SDS011;2755;50.728;7.108;2024-03-08T12:32:04;129.57;;;50.70;;
5465;SDS011;2755;50.728;7.108;2024-03-08T12:34:30;133.97;;;58.33;;
5465;SDS011;2755;50.728;7.108;2024-03-08T12:36:57;137.47;;;63.30;;
5465;SDS011;2755;50.728;7.108;2024-03-08T12:39:23;139.00;;;65.73;;
5465;SDS011;2755;50.728;7.108;2024-03-08T12:41:55;136.67;;;61.83;;
5465;SDS011;2755;50.728;7.108;2024-03-08T12:44:24;139.07;;;65.80;;
5465;SDS011;2755;50.728;7.108;2024-03-08T12:46:50;135.20;;;60.03;;
5465;SDS011;2755;50.728;7.108;2024-03-08T12:49:18;136.00;;;62.80;;
5465;SDS011;2755;50.728;7.108;2024-03-08T12:51:47;137.17;;;62.90;;
5465;SDS011;2755;50.728;7.108;2024-03-08T12:54:12;136.40;;;62.07;;
5465;SDS011;2755;50.728;7.108;2024-03-08T12:56:38;135.07;;;61.30;;
5465;SDS011;2755;50.728;7.108;2024-03-08T12:59:05;135.57;;;60.13;;
5465;SDS011;2755;50.728;7.108;2024-03-08T13:01:32;134.10;;;60.17;;
5465;SDS011;2755;50.728;7.108;2024-03-08T13:03:58;135.73;;;62.50;;
5465;SDS011;2755;50.728;7.108;2024-03-08T13:06:26;135.27;;;59.97;;
5465;SDS011;2755;50.728;7.108;2024-03-08T13:08:53;136.60;;;61.30;;
5465;SDS011;2755;50.728;7.108;2024-03-08T13:11:20;134.27;;;57.17;;
5465;SDS011;2755;50.728;7.108;2024-03-08T13:13:46;133.57;;;56.97;;
5465;SDS011;2755;50.728;7.108;2024-03-08T13:16:12;134.97;;;60.30;;
5465;SDS011;2755;50.728;7.108;2024-03-08T13:18:42;133.40;;;57.37;;
5465;SDS011;2755;50.728;7.108;2024-03-08T13:21:08;135.77;;;61.17;;
5465;SDS011;2755;50.728;7.108;2024-03-08T13:23:35;133.10;;;57.20;;
5465;SDS011;2755;50.728;7.108;2024-03-08T13:26:05;135.10;;;60.70;;
5465;SDS011;2755;50.728;7.108;2024-03-08T13:28:32;132.70;;;57.07;;
5465;SDS011;2755;50.728;7.108;2024-03-08T13:31:01;135.17;;;59.60;;
5465;SDS011;2755;50.728;7.108;2024-03-08T13:33:28;132.90;;;56.67;;
5465;SDS011;2755;50.728;7.108;2024-03-08T13:35:56;133.37;;;57.27;;
5465;SDS011;2755;50.728;7.108;2024-03-08T13:38:22;135.60;;;60.03;;
5465;SDS011;2755;50.728;7.108;2024-03-08T13:40:49;135.30;;;58.30;;
5465;SDS011;2755;50.728;7.108;2024-03-08T13:43:16;133.90;;;57.93;;
5465;SDS011;2755;50.728;7.108;2024-03-08T13:45:42;134.10;;;58.17;;
5465;SDS011;2755;50.728;7.108;2024-03-08T13:48:08;136.37;;;61.43;;
5465;SDS011;2755;50.728;7.108;2024-03-08T13:50:37;133.87;;;56.80;;
5465;SDS011;2755;50.728;7.108;2024-03-08T13:53:03;133.97;;;57.37;;
5465;SDS011;2755;50.728;7.108;2024-03-08T13:55:29;133.03;;;56.63;;
5465;SDS011;2755;50.728;7.108;2024-03-08T13:57:55;136.67;;;61.30;;
5465;SDS011;2755;50.728;7.108;2024-03-08T14:00:22;134.77;;;58.57;;
5465;SDS011;2755;50.728;7.108;2024-03-08T14:02:48;133.60;;;56.27;;
5465;SDS011;2755;50.728;7.108;2024-03-08T14:05:13;132.27;;;55.30;;
5465;SDS011;2755;50.728;7.108;2024-03-08T14:07:41;130.33;;;52.17;;
5465;SDS011;2755;50.728;7.108;2024-03-08T14:10:06;127.60;;;47.47;;
5465;SDS011;2755;50.728;7.108;2024-03-08T14:12:34;129.50;;;50.10;;
5465;SDS011;2755;50.728;7.108;2024-03-08T14:15:00;127.27;;;47.00;;
5465;SDS011;2755;50.728;7.108;2024-03-08T14:17:26;124.80;;;43.97;;
5465;SDS011;2755;50.728;7.108;2024-03-08T14:19:55;124.30;;;42.17;;
5465;SDS011;2755;50.728;7.108;2024-03-08T14:22:21;125.97;;;44.77;;
5465;SDS011;2755;50.728;7.108;2024-03-08T14:24:47;124.97;;;43.73;;
5465;SDS011;2755;50.728;7.108;2024-03-08T14:27:12;123.47;;;41.00;;
5465;SDS011;2755;50.728;7.108;2024-03-08T14:29:40;126.60;;;46.30;;
5465;SDS011;2755;50.728;7.108;2024-03-08T14:32:05;123.77;;;41.10;;
5465;SDS011;2755;50.728;7.108;2024-03-08T14:34:32;125.43;;;44.13;;